Hlavní strana
METAR-TAF:

METAR-TAF

Letiště :

Denver International Airport

Denver, Colorado, Spojené státy americké

zeměpisná šířka: 39-49-58N, zeměpisná délka: 104-39-27W, výška: 1655 m

Aktuální stav počasí

Zpráva byla vytvořena před 17 minutami, v 07:53 UTC
Jihozápadní vítr 11 kt
Teplota -2°C
Vlhkost vzduchu 63%
Tlak 1022 hPa
Viditelnost: 16.1 km
Jasno

METAR: KDEN 200753Z 23011KT 10SM CLR M02/M08 A3019 RMK AO2 SLP221 T10221078

Čas: 01:10 (08:10 UTC)

Předpověď počasí

Zpráva byla vytvořena před 1 hodinou a 34 minutami, v 06:36 UTC
Předpověď platná od 20 v 07 UTC do 21 v 12 UTC
Jihojihozápadní vítr 8 kt
Viditelnost: 10 km
Jasno
Od 20 v 2300 UTC
Východojihovýchodní vítr 5 kt
Viditelnost: 10 km
Skoro jasno ve výšce 13000 ft
Skoro jasno ve výšce 25000 ft
Od 21 v 0200 UTC
Jihojihovýchodní vítr 5 kt
Viditelnost: 10 km
Jasno
Od 21 v 0500 UTC
Jižní vítr 8 kt
Viditelnost: 10 km
Jasno

TAF: KDEN 200636Z 2007/2112 21008KT P6SM SKC FM202300 12005KT P6SM FEW130 FEW250 FM210200 16005KT P6SM SKC FM210500 19008KT P6SM SKC

Stav a předpovědi počasí z více než 4 000 letišť (zprávy METAR a TAF).

Červené a žluté tečky na mapě představují dostupné meteorologické stanice.

Když kurzor umístíte na tečku, zobrazí se název stanice.

Pak kliknutím zobrazíte stav a předpověď počasí.

Chcete-li změnit mapu, kliknutím na zelené tlačítko se znaménkem +mapu přiblížíte, kliknutím na zelené tlačítko se znaménkem – mapu oddálíte a kliknutím na zelené šipky přejdete na sousední mapy.


METAR-TAF: